createdAt,value
2018-05-29T00:00:44.923Z,23.7
2018-05-29T00:01:46.322Z,23.7
2018-05-29T00:02:47.726Z,23.6
2018-05-29T00:03:49.125Z,23.7
2018-05-29T00:04:50.517Z,23.6
2018-05-29T00:05:51.912Z,23.5
2018-05-29T00:06:53.313Z,23.5
2018-05-29T00:07:54.711Z,23.4
2018-05-29T00:08:56.106Z,23.4
2018-05-29T00:09:57.503Z,23.4
2018-05-29T00:10:58.901Z,23.4
2018-05-29T00:12:00.295Z,23.4
2018-05-29T00:13:01.689Z,23.4
2018-05-29T00:14:03.089Z,23.3
2018-05-29T00:15:04.511Z,23.3
2018-05-29T00:16:05.906Z,23.2
2018-05-29T00:17:07.338Z,23.3
2018-05-29T00:18:08.738Z,23.3
2018-05-29T00:19:10.130Z,23.3
2018-05-29T00:20:11.524Z,23.4
2018-05-29T00:21:12.918Z,23.3
2018-05-29T00:22:14.310Z,23.3
2018-05-29T00:23:15.707Z,23.3
2018-05-29T00:24:17.105Z,23.2
2018-05-29T00:25:18.503Z,23.2
2018-05-29T00:26:19.896Z,23.2
2018-05-29T00:27:21.288Z,23.1
2018-05-29T00:28:22.683Z,23.1
2018-05-29T00:29:24.077Z,23.1
2018-05-29T00:30:25.482Z,23.1
2018-05-29T00:31:26.875Z,23.1
2018-05-29T00:32:28.285Z,23.1
2018-05-29T00:33:29.691Z,23.1
2018-05-29T00:34:31.087Z,23.0
2018-05-29T00:35:32.482Z,23.0
2018-05-29T00:36:33.881Z,23.0
2018-05-29T00:37:35.277Z,23.0
2018-05-29T00:38:36.673Z,22.9
2018-05-29T00:39:38.068Z,23.0
2018-05-29T00:40:39.463Z,23.0
2018-05-29T00:41:40.855Z,23.0
2018-05-29T00:42:42.250Z,22.9
2018-05-29T00:43:43.645Z,22.9
2018-05-29T00:44:45.039Z,22.8
2018-05-29T00:45:46.437Z,22.9
2018-05-29T00:46:47.841Z,22.8
2018-05-29T00:47:49.236Z,22.7
2018-05-29T00:48:50.636Z,22.7
2018-05-29T00:49:52.026Z,22.7
2018-05-29T00:50:53.425Z,22.7
2018-05-29T00:51:54.822Z,22.7
2018-05-29T00:52:56.220Z,22.7
2018-05-29T00:53:57.614Z,22.6
2018-05-29T00:54:59.006Z,22.6
2018-05-29T00:56:00.404Z,22.6
2018-05-29T00:57:01.799Z,22.6
2018-05-29T00:58:03.194Z,22.6
2018-05-29T00:59:04.593Z,22.6
2018-05-29T01:00:06.087Z,22.5
2018-05-29T01:01:07.495Z,22.5
2018-05-29T01:02:08.893Z,22.5
2018-05-29T01:03:10.286Z,22.5
2018-05-29T01:04:11.683Z,22.4
2018-05-29T01:05:13.075Z,22.4
2018-05-29T01:06:14.474Z,22.4
2018-05-29T01:07:15.870Z,22.4
2018-05-29T01:08:17.284Z,22.4
2018-05-29T01:09:18.683Z,22.3
2018-05-29T01:10:20.084Z,22.4
2018-05-29T01:11:21.473Z,22.3
2018-05-29T01:12:22.882Z,22.4
2018-05-29T01:13:24.271Z,22.3
2018-05-29T01:14:25.667Z,22.3
2018-05-29T01:15:27.066Z,22.2
2018-05-29T01:16:28.456Z,22.2
2018-05-29T01:17:29.886Z,22.2
2018-05-29T01:18:31.281Z,22.2
2018-05-29T01:19:32.678Z,22.2
2018-05-29T01:20:34.072Z,22.2
2018-05-29T01:21:35.472Z,22.2
2018-05-29T01:22:36.874Z,22.1
2018-05-29T01:23:38.273Z,22.1
2018-05-29T01:24:39.662Z,22.1
2018-05-29T01:25:41.060Z,22.1
2018-05-29T01:26:42.459Z,22.1
2018-05-29T01:27:43.850Z,22.1
2018-05-29T01:28:45.247Z,22.1
2018-05-29T01:29:46.642Z,22.0
2018-05-29T01:30:48.037Z,21.9
2018-05-29T01:31:49.430Z,22.0
2018-05-29T01:32:50.827Z,22.0
2018-05-29T01:33:52.221Z,22.0
2018-05-29T01:34:53.616Z,22.0
2018-05-29T01:35:55.011Z,22.0
2018-05-29T01:36:56.406Z,22.0
2018-05-29T01:37:57.799Z,22.0
2018-05-29T01:38:59.193Z,22.0
2018-05-29T01:40:00.588Z,21.9
2018-05-29T01:41:01.984Z,21.9
2018-05-29T01:42:03.379Z,21.8
2018-05-29T01:43:04.813Z,21.9
2018-05-29T01:44:06.219Z,21.8
2018-05-29T01:45:07.618Z,21.8
2018-05-29T01:46:09.004Z,21.8
2018-05-29T01:47:10.398Z,21.8
2018-05-29T01:48:11.809Z,21.9
2018-05-29T01:49:13.206Z,21.8
2018-05-29T01:50:14.602Z,21.7
2018-05-29T01:51:16.000Z,21.7
2018-05-29T01:52:17.399Z,21.7
2018-05-29T01:53:18.783Z,21.7
2018-05-29T01:54:20.176Z,21.8
2018-05-29T01:55:21.568Z,21.6
2018-05-29T01:56:22.965Z,21.7
2018-05-29T01:57:24.359Z,21.7
2018-05-29T01:58:25.761Z,21.7
2018-05-29T01:59:27.154Z,21.7
2018-05-29T02:00:28.544Z,21.7
2018-05-29T02:01:29.943Z,21.7
2018-05-29T02:02:31.332Z,21.8
2018-05-29T02:03:32.733Z,21.7
2018-05-29T02:04:34.173Z,21.7
2018-05-29T02:05:35.516Z,21.7
2018-05-29T02:06:36.916Z,21.6
2018-05-29T02:07:38.309Z,21.7
2018-05-29T02:08:39.700Z,21.6
2018-05-29T02:09:41.095Z,21.6
2018-05-29T02:10:42.490Z,21.5
2018-05-29T02:11:43.884Z,21.5
2018-05-29T02:12:45.282Z,21.5
2018-05-29T02:13:46.675Z,21.6
2018-05-29T02:14:48.071Z,21.5
2018-05-29T02:15:49.464Z,21.6
2018-05-29T02:16:50.860Z,21.6
2018-05-29T02:17:52.253Z,21.5
2018-05-29T02:18:53.654Z,21.5
2018-05-29T02:19:55.054Z,21.6
2018-05-29T02:20:56.442Z,21.5
2018-05-29T02:21:57.836Z,21.6
2018-05-29T02:22:59.233Z,21.6
2018-05-29T02:24:00.626Z,21.6
2018-05-29T02:25:02.021Z,21.6
2018-05-29T02:26:03.438Z,21.6
2018-05-29T02:27:04.889Z,21.5
2018-05-29T02:28:06.285Z,21.6
2018-05-29T02:29:07.676Z,21.5
2018-05-29T02:30:09.077Z,21.5
2018-05-29T02:31:10.470Z,21.4
2018-05-29T02:32:11.867Z,21.3
2018-05-29T02:33:13.267Z,21.3
2018-05-29T02:34:14.661Z,21.3
2018-05-29T02:35:16.055Z,21.3
2018-05-29T02:36:17.452Z,21.3
2018-05-29T02:37:18.843Z,21.3
2018-05-29T02:38:20.236Z,21.2
2018-05-29T02:39:21.628Z,21.3
2018-05-29T02:40:23.022Z,21.2
2018-05-29T02:41:24.419Z,21.2
2018-05-29T02:42:25.823Z,21.2
2018-05-29T02:43:27.217Z,21.2
2018-05-29T02:44:28.616Z,21.2
2018-05-29T02:45:30.005Z,21.2
2018-05-29T02:46:31.403Z,21.2
2018-05-29T02:47:32.797Z,21.1
2018-05-29T02:48:34.194Z,21.2
2018-05-29T02:49:35.590Z,21.1
2018-05-29T02:50:36.982Z,21.1
2018-05-29T02:51:38.392Z,21.1
2018-05-29T02:52:39.771Z,21.1
2018-05-29T02:53:41.167Z,21.1
2018-05-29T02:54:42.569Z,21.1
2018-05-29T02:55:43.976Z,21.1
2018-05-29T02:56:45.369Z,21.0
2018-05-29T02:57:46.760Z,21.0
2018-05-29T02:58:48.160Z,21.0
2018-05-29T02:59:49.549Z,21.0
2018-05-29T03:00:50.946Z,21.1
2018-05-29T03:01:52.344Z,21.0
2018-05-29T03:02:53.739Z,21.0
2018-05-29T03:03:55.131Z,21.0
2018-05-29T03:04:56.524Z,21.0
2018-05-29T03:05:57.919Z,21.0
2018-05-29T03:06:59.311Z,20.9
2018-05-29T03:08:00.711Z,20.9
2018-05-29T03:09:02.102Z,20.8
2018-05-29T03:10:03.598Z,20.6
2018-05-29T03:11:04.998Z,20.3
2018-05-29T03:12:06.393Z,20.1
2018-05-29T03:13:07.784Z,20.0
2018-05-29T03:14:09.179Z,20.0
2018-05-29T03:15:10.576Z,19.9
2018-05-29T03:16:11.973Z,19.9
2018-05-29T03:17:13.381Z,19.9
2018-05-29T03:18:14.775Z,19.9
2018-05-29T03:19:16.171Z,20.0
2018-05-29T03:20:17.569Z,20.0
2018-05-29T03:21:18.966Z,19.9
2018-05-29T03:22:20.361Z,19.9
2018-05-29T03:23:21.756Z,19.9
2018-05-29T03:24:23.152Z,19.8
2018-05-29T03:25:24.546Z,19.9
2018-05-29T03:26:25.940Z,19.9
2018-05-29T03:27:27.334Z,20.0
2018-05-29T03:28:28.730Z,20.0
2018-05-29T03:29:30.163Z,20.0
2018-05-29T03:30:31.521Z,19.9
2018-05-29T03:31:32.957Z,20.0
2018-05-29T03:32:34.355Z,20.1
2018-05-29T03:33:35.743Z,20.1
2018-05-29T03:34:37.137Z,20.1
2018-05-29T03:35:38.540Z,20.1
2018-05-29T03:36:39.935Z,20.2
2018-05-29T03:37:41.336Z,20.2
2018-05-29T03:38:42.731Z,20.2
2018-05-29T03:39:44.127Z,20.2
2018-05-29T03:40:45.522Z,20.3
2018-05-29T03:41:46.915Z,20.2
2018-05-29T03:42:48.310Z,20.3
2018-05-29T03:43:49.709Z,20.3
2018-05-29T03:44:51.103Z,20.4
2018-05-29T03:45:52.503Z,20.4
2018-05-29T03:46:53.898Z,20.4
2018-05-29T03:47:55.295Z,20.4
2018-05-29T03:48:56.692Z,20.4
2018-05-29T03:49:58.090Z,20.4
2018-05-29T03:50:59.485Z,20.5
2018-05-29T03:52:00.881Z,20.4
2018-05-29T03:53:02.350Z,20.5
2018-05-29T03:54:03.760Z,20.6
2018-05-29T03:55:05.155Z,20.6
2018-05-29T03:56:06.551Z,20.6
2018-05-29T03:57:07.956Z,20.5
2018-05-29T03:58:09.355Z,20.6
2018-05-29T03:59:10.751Z,20.6
2018-05-29T04:00:12.148Z,20.6
2018-05-29T04:01:13.545Z,20.6
2018-05-29T04:02:14.942Z,20.6
2018-05-29T04:03:16.339Z,20.7
2018-05-29T04:04:17.739Z,20.7
2018-05-29T04:05:19.143Z,20.7
2018-05-29T04:06:20.540Z,20.7
2018-05-29T04:07:21.937Z,20.8
2018-05-29T04:08:23.334Z,20.8
2018-05-29T04:09:24.775Z,20.8
2018-05-29T04:10:26.132Z,20.8
2018-05-29T04:11:27.531Z,20.7
2018-05-29T04:12:28.926Z,20.8
2018-05-29T04:13:30.356Z,20.8
2018-05-29T04:14:31.761Z,20.8
2018-05-29T04:15:33.163Z,20.8
2018-05-29T04:16:34.583Z,20.9
2018-05-29T04:17:35.983Z,21.0
2018-05-29T04:18:37.380Z,20.9
2018-05-29T04:19:38.779Z,20.8
2018-05-29T04:20:40.177Z,20.9
2018-05-29T04:21:41.576Z,20.8
2018-05-29T04:22:42.976Z,20.8
2018-05-29T04:23:44.370Z,20.9
2018-05-29T04:24:45.765Z,20.8
2018-05-29T04:25:47.160Z,20.9
2018-05-29T04:26:48.560Z,20.9
2018-05-29T04:27:49.960Z,21.0
2018-05-29T04:28:51.360Z,21.0
2018-05-29T04:29:52.755Z,20.9
2018-05-29T04:30:54.148Z,21.0
2018-05-29T04:31:55.549Z,21.0
2018-05-29T04:32:56.946Z,21.1
2018-05-29T04:33:58.344Z,21.1
2018-05-29T04:34:59.744Z,21.1
2018-05-29T04:36:01.156Z,21.2
2018-05-29T04:37:03.226Z,21.3
2018-05-29T04:38:04.622Z,21.2
2018-05-29T04:39:06.014Z,21.3
2018-05-29T04:40:07.421Z,21.3
2018-05-29T04:41:08.813Z,21.3
2018-05-29T04:42:10.210Z,21.3
2018-05-29T04:43:11.612Z,21.4
2018-05-29T04:44:13.011Z,21.4
2018-05-29T04:45:14.407Z,21.4
2018-05-29T04:46:15.833Z,21.5
2018-05-29T04:47:17.202Z,21.6
2018-05-29T04:48:18.609Z,21.6
2018-05-29T04:49:20.008Z,21.6
2018-05-29T04:50:21.407Z,21.7
2018-05-29T04:51:22.811Z,21.8
2018-05-29T04:52:24.206Z,21.8
2018-05-29T04:53:25.608Z,21.8
2018-05-29T04:54:27.004Z,21.9
2018-05-29T04:55:28.399Z,21.9
2018-05-29T04:56:29.801Z,21.9
2018-05-29T04:57:31.201Z,22.0
2018-05-29T04:58:32.633Z,22.1
2018-05-29T04:59:34.034Z,22.2
2018-05-29T05:00:35.430Z,22.2
2018-05-29T05:01:36.832Z,22.3
2018-05-29T05:02:38.326Z,22.3
2018-05-29T05:03:39.694Z,22.4
2018-05-29T05:04:41.096Z,22.4
2018-05-29T05:05:42.494Z,22.5
2018-05-29T05:06:43.901Z,22.6
2018-05-29T05:07:45.296Z,22.6
2018-05-29T05:08:46.692Z,22.6
2018-05-29T05:09:48.103Z,22.7
2018-05-29T05:10:49.499Z,22.6
2018-05-29T05:11:50.900Z,22.6
2018-05-29T05:12:52.296Z,22.7
2018-05-29T05:13:53.694Z,22.7
2018-05-29T05:14:55.096Z,22.7
2018-05-29T05:15:56.491Z,22.7
2018-05-29T05:16:57.901Z,22.7
2018-05-29T05:17:59.349Z,22.8
2018-05-29T05:19:00.763Z,22.7
2018-05-29T05:20:02.161Z,22.7
2018-05-29T05:21:03.570Z,22.8
2018-05-29T05:22:04.969Z,22.8
2018-05-29T05:23:06.367Z,22.9
2018-05-29T05:24:07.765Z,22.9
2018-05-29T05:25:09.166Z,22.9
2018-05-29T05:26:10.608Z,22.8
2018-05-29T05:27:12.000Z,23.0
2018-05-29T05:28:13.403Z,23.0
2018-05-29T05:29:14.804Z,23.0
2018-05-29T05:30:16.204Z,23.0
2018-05-29T05:31:17.604Z,23.1
2018-05-29T05:32:19.037Z,23.1
2018-05-29T05:33:20.426Z,23.2
2018-05-29T05:34:21.828Z,23.1
2018-05-29T05:35:23.282Z,23.1
2018-05-29T05:36:24.647Z,23.2
2018-05-29T05:37:26.048Z,23.2
2018-05-29T05:38:27.444Z,23.2
2018-05-29T05:39:28.844Z,23.3
2018-05-29T05:40:30.263Z,23.3
2018-05-29T05:41:31.660Z,23.4
2018-05-29T05:42:33.054Z,23.2
2018-05-29T05:43:34.455Z,23.3
2018-05-29T05:44:35.855Z,23.3
2018-05-29T05:45:37.255Z,23.3
2018-05-29T05:46:38.659Z,23.3
2018-05-29T05:47:40.062Z,23.4
2018-05-29T05:48:41.457Z,23.4
2018-05-29T05:49:42.856Z,23.4
2018-05-29T05:50:44.258Z,23.5
2018-05-29T05:51:45.654Z,23.4
2018-05-29T05:52:47.065Z,23.5
2018-05-29T05:53:48.456Z,23.5
2018-05-29T05:54:49.869Z,23.5
2018-05-29T05:55:51.268Z,23.5
2018-05-29T05:56:52.664Z,23.6
2018-05-29T05:57:54.061Z,23.6
2018-05-29T05:58:55.790Z,23.6
2018-05-29T05:59:57.210Z,23.6
2018-05-29T06:00:58.611Z,23.7
2018-05-29T06:02:00.016Z,23.7
2018-05-29T06:03:01.416Z,23.7
2018-05-29T06:04:02.845Z,23.7
2018-05-29T06:05:04.251Z,23.7
2018-05-29T06:06:05.650Z,23.7
2018-05-29T06:07:07.049Z,23.7
2018-05-29T06:08:08.449Z,23.7
2018-05-29T06:09:09.850Z,23.8
2018-05-29T06:10:11.271Z,23.8
2018-05-29T06:11:12.662Z,23.8
2018-05-29T06:12:14.077Z,23.8
2018-05-29T06:13:15.474Z,23.9
2018-05-29T06:14:16.879Z,23.9
2018-05-29T06:15:18.276Z,23.8
2018-05-29T06:16:19.709Z,23.9
2018-05-29T06:17:21.160Z,23.8
2018-05-29T06:18:22.562Z,23.8
2018-05-29T06:19:23.971Z,23.8
2018-05-29T06:20:25.372Z,24.0
2018-05-29T06:21:26.770Z,24.0
2018-05-29T06:22:28.173Z,24.0
2018-05-29T06:23:29.580Z,24.1
2018-05-29T06:24:30.973Z,24.2
2018-05-29T06:25:32.369Z,24.3
2018-05-29T06:26:33.776Z,24.5
2018-05-29T06:27:35.178Z,24.3
2018-05-29T06:28:36.579Z,24.5
2018-05-29T06:29:37.977Z,24.3
2018-05-29T06:30:39.377Z,24.3
2018-05-29T06:31:40.781Z,24.4
2018-05-29T06:32:42.185Z,24.4
2018-05-29T06:33:43.586Z,24.4
2018-05-29T06:34:44.979Z,24.5
2018-05-29T06:35:46.384Z,24.5
2018-05-29T06:36:47.789Z,24.4
2018-05-29T06:37:49.201Z,24.5
2018-05-29T06:38:50.602Z,24.6
2018-05-29T06:39:51.998Z,24.7
2018-05-29T06:40:53.407Z,24.6
2018-05-29T06:41:54.803Z,24.7
2018-05-29T06:42:56.204Z,24.7
2018-05-29T06:43:57.735Z,24.7
2018-05-29T06:44:59.182Z,24.8
2018-05-29T06:46:00.534Z,24.8
2018-05-29T06:47:01.931Z,24.9
2018-05-29T06:48:03.342Z,24.9
2018-05-29T06:49:04.741Z,24.9
2018-05-29T06:50:06.141Z,24.9
2018-05-29T06:51:07.542Z,25.0
2018-05-29T06:52:08.946Z,25.1
2018-05-29T06:53:10.344Z,25.2
2018-05-29T06:54:11.746Z,25.2
2018-05-29T06:55:13.149Z,25.3
2018-05-29T06:56:14.546Z,25.4
2018-05-29T06:57:15.948Z,25.4
2018-05-29T06:58:17.360Z,25.5
2018-05-29T06:59:18.761Z,25.6
2018-05-29T07:00:20.163Z,25.6
2018-05-29T07:01:21.559Z,25.7
2018-05-29T07:02:22.965Z,25.8
2018-05-29T07:03:24.356Z,25.9
2018-05-29T07:04:25.754Z,25.9
2018-05-29T07:05:27.155Z,26.0
2018-05-29T07:06:28.559Z,26.1
2018-05-29T07:07:29.959Z,26.0
2018-05-29T07:08:31.357Z,26.2
2018-05-29T07:09:32.761Z,26.2
2018-05-29T07:10:34.168Z,26.2
2018-05-29T07:11:35.571Z,26.3
2018-05-29T07:12:36.972Z,26.3
2018-05-29T07:13:38.388Z,26.4
2018-05-29T07:14:39.827Z,26.3
2018-05-29T07:15:41.188Z,26.4
2018-05-29T07:16:42.591Z,26.4
2018-05-29T07:17:43.997Z,26.4
2018-05-29T07:18:45.397Z,26.4
2018-05-29T07:19:46.801Z,26.4
2018-05-29T07:20:48.218Z,26.5
2018-05-29T07:21:49.620Z,26.6
2018-05-29T07:22:51.020Z,26.7
2018-05-29T07:23:52.420Z,26.8
2018-05-29T07:24:53.819Z,26.8
2018-05-29T07:25:55.224Z,26.8
2018-05-29T07:26:56.664Z,26.8
2018-05-29T07:27:58.105Z,26.9
2018-05-29T07:28:59.504Z,27.0
2018-05-29T07:30:00.908Z,27.2
2018-05-29T07:31:02.308Z,27.2
2018-05-29T07:32:03.705Z,27.3
2018-05-29T07:33:05.108Z,27.4
2018-05-29T07:34:06.510Z,27.5
2018-05-29T07:35:07.915Z,27.6
2018-05-29T07:36:09.317Z,27.7
2018-05-29T07:37:10.718Z,27.7
2018-05-29T07:38:12.118Z,27.7
2018-05-29T07:39:13.540Z,27.7
2018-05-29T07:40:14.948Z,27.7
2018-05-29T07:41:16.349Z,27.8
2018-05-29T07:42:17.758Z,27.8
2018-05-29T07:43:19.161Z,27.9
2018-05-29T07:44:20.564Z,27.8
2018-05-29T07:45:21.962Z,27.8
2018-05-29T07:46:23.361Z,27.7
2018-05-29T07:47:24.768Z,27.7
2018-05-29T07:48:26.169Z,27.7
2018-05-29T07:49:27.579Z,27.7
2018-05-29T07:50:28.974Z,27.8
2018-05-29T07:51:30.379Z,27.9
2018-05-29T07:52:31.777Z,27.9
2018-05-29T07:53:33.189Z,27.9
2018-05-29T07:54:34.590Z,28.0
2018-05-29T07:55:35.997Z,28.1
2018-05-29T07:56:37.397Z,28.1
2018-05-29T07:57:38.814Z,28.1
2018-05-29T07:58:40.209Z,28.1
2018-05-29T07:59:41.611Z,28.2
2018-05-29T08:00:43.008Z,28.2
2018-05-29T08:01:44.419Z,28.2
2018-05-29T08:02:45.823Z,28.3
2018-05-29T08:03:47.226Z,28.4
2018-05-29T08:04:48.645Z,28.3
2018-05-29T08:05:50.046Z,28.5
2018-05-29T08:06:51.446Z,28.6
2018-05-29T08:07:52.846Z,28.6
2018-05-29T08:08:54.343Z,28.7
2018-05-29T08:09:55.786Z,28.7
2018-05-29T08:10:57.201Z,28.7
2018-05-29T08:11:58.598Z,28.7
2018-05-29T08:13:00.001Z,28.8
2018-05-29T08:14:01.403Z,28.9
2018-05-29T08:15:02.807Z,28.9
2018-05-29T08:16:04.210Z,29.1
2018-05-29T08:17:05.615Z,29.2
2018-05-29T08:18:07.019Z,29.3
2018-05-29T08:19:08.426Z,29.3
2018-05-29T08:20:09.826Z,29.4
2018-05-29T08:21:11.234Z,29.6
2018-05-29T08:22:12.644Z,29.7
2018-05-29T08:23:14.041Z,29.7
2018-05-29T08:24:15.452Z,29.9
2018-05-29T08:25:16.855Z,29.9
2018-05-29T08:26:18.264Z,29.9
2018-05-29T08:27:19.664Z,30.0
2018-05-29T08:28:21.081Z,30.1
2018-05-29T08:29:22.485Z,30.2
2018-05-29T08:30:23.915Z,30.2
2018-05-29T08:31:25.335Z,30.2
2018-05-29T08:32:26.744Z,30.1
2018-05-29T08:33:28.149Z,30.1
2018-05-29T08:34:29.547Z,30.1
2018-05-29T08:35:30.946Z,30.1
2018-05-29T08:36:32.349Z,30.0
2018-05-29T08:37:33.752Z,30.0
2018-05-29T08:38:35.158Z,29.9
2018-05-29T08:39:36.606Z,30.0
2018-05-29T08:40:37.974Z,30.0
2018-05-29T08:41:39.377Z,29.9
2018-05-29T08:42:40.783Z,30.0
2018-05-29T08:43:42.191Z,29.9
2018-05-29T08:44:43.606Z,29.9
2018-05-29T08:45:45.010Z,30.1
2018-05-29T08:46:46.415Z,30.2
2018-05-29T08:47:47.816Z,30.2
2018-05-29T08:48:49.218Z,30.3
2018-05-29T08:49:50.619Z,30.4
2018-05-29T08:50:52.024Z,30.6
2018-05-29T08:51:53.449Z,30.5
2018-05-29T08:52:54.837Z,30.6
2018-05-29T08:53:56.240Z,30.7
2018-05-29T08:54:57.641Z,30.8
2018-05-29T08:55:59.040Z,30.8
2018-05-29T08:57:00.442Z,30.9
2018-05-29T08:58:01.847Z,30.9
2018-05-29T08:59:03.258Z,30.8
2018-05-29T09:00:04.660Z,30.9
2018-05-29T09:01:06.058Z,30.8
2018-05-29T09:02:07.464Z,30.7
2018-05-29T09:03:08.891Z,30.7
2018-05-29T09:04:10.304Z,30.6
2018-05-29T09:05:11.701Z,30.7
2018-05-29T09:06:13.102Z,30.6
2018-05-29T09:07:14.518Z,30.6
2018-05-29T09:08:15.922Z,30.7
2018-05-29T09:09:17.322Z,30.7
2018-05-29T09:10:18.738Z,30.6
2018-05-29T09:11:20.138Z,30.7
2018-05-29T09:12:21.544Z,30.6
2018-05-29T09:13:22.942Z,30.6
2018-05-29T09:14:24.357Z,30.6
2018-05-29T09:15:25.782Z,30.7
2018-05-29T09:16:27.241Z,30.7
2018-05-29T09:17:28.646Z,30.8
2018-05-29T09:18:30.052Z,30.6
2018-05-29T09:19:31.457Z,30.7
2018-05-29T09:20:32.864Z,30.6
2018-05-29T09:21:34.270Z,30.5
2018-05-29T09:22:35.673Z,30.5
2018-05-29T09:23:37.081Z,30.6
2018-05-29T09:24:38.508Z,30.6
2018-05-29T09:25:39.925Z,30.6
2018-05-29T09:26:41.389Z,30.5
2018-05-29T09:27:42.797Z,30.3
2018-05-29T09:28:44.210Z,30.4
2018-05-29T09:29:45.698Z,30.3
2018-05-29T09:30:47.023Z,30.3
2018-05-29T09:31:48.422Z,30.2
2018-05-29T09:32:49.825Z,30.2
2018-05-29T09:33:51.276Z,30.2
2018-05-29T09:34:52.741Z,30.2
2018-05-29T09:35:54.142Z,30.2
2018-05-29T09:36:55.543Z,30.3
2018-05-29T09:37:56.944Z,30.4
2018-05-29T09:38:58.348Z,30.4
2018-05-29T09:39:59.753Z,30.4
2018-05-29T09:41:01.157Z,30.3
2018-05-29T09:42:02.561Z,30.3
2018-05-29T09:43:03.969Z,30.4
2018-05-29T09:44:05.374Z,30.3
2018-05-29T09:45:06.777Z,30.4
2018-05-29T09:46:08.173Z,30.4
2018-05-29T09:47:09.575Z,30.3
2018-05-29T09:48:11.026Z,30.2
2018-05-29T09:49:12.409Z,30.2
2018-05-29T09:50:13.811Z,30.1
2018-05-29T09:51:15.213Z,30.1
2018-05-29T09:52:16.616Z,30.1
2018-05-29T09:53:18.052Z,30.1
2018-05-29T09:54:19.453Z,30.1
2018-05-29T09:55:20.854Z,30.1
2018-05-29T09:56:22.300Z,30.1
2018-05-29T09:57:23.714Z,30.1
2018-05-29T09:58:25.151Z,30.1
2018-05-29T09:59:26.561Z,30.2
2018-05-29T10:00:27.949Z,30.4
2018-05-29T10:01:29.351Z,30.6
2018-05-29T10:02:30.755Z,30.7
2018-05-29T10:03:32.160Z,30.8
2018-05-29T10:04:33.584Z,30.9
2018-05-29T10:05:34.990Z,31.1
2018-05-29T10:06:36.388Z,31.3
2018-05-29T10:07:37.793Z,31.4
2018-05-29T10:08:39.197Z,31.7
2018-05-29T10:09:40.603Z,31.9
2018-05-29T10:10:42.012Z,32.1
2018-05-29T10:11:43.422Z,32.3
2018-05-29T10:12:44.830Z,32.8
2018-05-29T10:13:46.230Z,32.9
2018-05-29T10:14:47.635Z,33.1
2018-05-29T10:15:49.037Z,33.4
2018-05-29T10:16:50.451Z,33.6
2018-05-29T10:17:51.860Z,33.8
2018-05-29T10:18:53.263Z,33.9
2018-05-29T10:19:54.691Z,34.1
2018-05-29T10:20:56.074Z,34.0
2018-05-29T10:21:57.476Z,33.9
2018-05-29T10:22:58.956Z,34.1
2018-05-29T10:24:00.360Z,34.2
2018-05-29T10:25:01.763Z,34.3
2018-05-29T10:26:03.196Z,34.3
2018-05-29T10:27:04.604Z,34.1
2018-05-29T10:28:06.007Z,34.0
2018-05-29T10:29:07.418Z,33.3
2018-05-29T10:30:08.814Z,33.1
2018-05-29T10:31:10.316Z,33.0
2018-05-29T10:32:11.717Z,32.8
2018-05-29T10:33:13.170Z,32.7
2018-05-29T10:34:14.577Z,32.6
2018-05-29T10:35:15.981Z,32.5
2018-05-29T10:36:17.397Z,32.5
2018-05-29T10:37:18.799Z,32.5
2018-05-29T10:38:20.203Z,32.5
2018-05-29T10:39:21.609Z,32.7
2018-05-29T10:40:23.013Z,32.8
2018-05-29T10:41:24.458Z,33.1
2018-05-29T10:42:25.868Z,33.3
2018-05-29T10:43:27.268Z,33.5
2018-05-29T10:44:28.673Z,33.7
2018-05-29T10:45:30.086Z,33.9
2018-05-29T10:46:31.492Z,34.3
2018-05-29T10:47:32.898Z,34.2
2018-05-29T10:48:34.304Z,34.3
2018-05-29T10:49:35.707Z,34.3
2018-05-29T10:50:37.128Z,34.3
2018-05-29T10:51:38.478Z,34.4
2018-05-29T10:52:39.882Z,34.4
2018-05-29T10:53:41.287Z,34.4
2018-05-29T10:54:42.696Z,34.6
2018-05-29T10:55:44.106Z,34.9
2018-05-29T10:56:45.511Z,34.7
2018-05-29T10:57:46.914Z,35.0
2018-05-29T10:58:48.399Z,35.1
2018-05-29T10:59:49.815Z,35.3
2018-05-29T11:00:51.223Z,35.3
2018-05-29T11:01:52.632Z,35.5
2018-05-29T11:02:54.049Z,35.6
2018-05-29T11:03:55.453Z,35.9
2018-05-29T11:04:56.858Z,36.2
2018-05-29T11:05:58.271Z,36.4
2018-05-29T11:06:59.678Z,36.6
2018-05-29T11:08:01.084Z,36.7
2018-05-29T11:09:02.496Z,36.7
2018-05-29T11:10:03.915Z,36.7
2018-05-29T11:11:05.323Z,36.7
2018-05-29T11:12:06.720Z,36.6
2018-05-29T11:13:08.124Z,36.6
2018-05-29T11:14:09.532Z,36.4
2018-05-29T11:15:10.938Z,36.3
2018-05-29T11:16:12.405Z,36.1
2018-05-29T11:17:13.886Z,35.9
2018-05-29T11:18:15.292Z,35.9
2018-05-29T11:19:16.701Z,35.8
2018-05-29T11:20:18.190Z,35.7
2018-05-29T11:21:19.598Z,35.7
2018-05-29T11:22:21.006Z,35.6
2018-05-29T11:23:22.415Z,35.9
2018-05-29T11:24:23.822Z,36.1
2018-05-29T11:25:25.226Z,36.3
2018-05-29T11:26:26.638Z,36.5
2018-05-29T11:27:28.054Z,36.7
2018-05-29T11:28:29.456Z,36.7
2018-05-29T11:29:30.866Z,36.8
2018-05-29T11:30:32.276Z,36.9
2018-05-29T11:31:33.681Z,37.1
2018-05-29T11:32:35.092Z,37.3
2018-05-29T11:33:36.498Z,37.3
2018-05-29T11:34:37.937Z,37.2
2018-05-29T11:35:39.344Z,37.3
2018-05-29T11:36:40.755Z,37.5
2018-05-29T11:37:42.164Z,37.4
2018-05-29T11:38:43.578Z,37.8
2018-05-29T11:39:44.989Z,37.8
2018-05-29T11:40:46.478Z,37.9
2018-05-29T11:41:47.887Z,38.2
2018-05-29T11:42:49.297Z,38.2
2018-05-29T11:43:50.709Z,38.4
2018-05-29T11:44:52.118Z,38.4
2018-05-29T11:45:53.532Z,38.5
2018-05-29T11:46:54.942Z,38.6
2018-05-29T11:47:56.392Z,38.9
2018-05-29T11:48:57.803Z,39.0
2018-05-29T11:49:59.215Z,39.0
2018-05-29T11:51:00.625Z,39.0
2018-05-29T11:52:02.057Z,38.8
2018-05-29T11:53:03.475Z,38.5
2018-05-29T11:54:04.885Z,38.3
2018-05-29T11:55:06.293Z,38.2
2018-05-29T11:56:07.701Z,38.0
2018-05-29T11:57:09.109Z,38.0
2018-05-29T11:58:10.518Z,37.8
2018-05-29T11:59:11.931Z,37.6
2018-05-29T12:00:13.354Z,37.5
2018-05-29T12:01:14.759Z,37.4
2018-05-29T12:02:16.171Z,37.2
2018-05-29T12:03:17.599Z,36.9
2018-05-29T12:04:19.004Z,36.5
2018-05-29T12:05:20.414Z,36.2
2018-05-29T12:06:21.824Z,35.9
2018-05-29T12:07:23.231Z,35.5
2018-05-29T12:08:24.633Z,35.5
2018-05-29T12:09:26.039Z,35.3
2018-05-29T12:10:27.444Z,35.1
2018-05-29T12:11:28.903Z,34.9
2018-05-29T12:12:30.308Z,34.8
2018-05-29T12:13:31.713Z,34.6
2018-05-29T12:14:33.135Z,34.5
2018-05-29T12:15:34.578Z,34.3
2018-05-29T12:16:35.982Z,34.2
2018-05-29T12:17:37.388Z,34.1
2018-05-29T12:18:38.800Z,33.9
2018-05-29T12:19:40.212Z,33.8
2018-05-29T12:20:41.621Z,33.7
2018-05-29T12:21:43.106Z,33.6
2018-05-29T12:22:44.493Z,33.4
2018-05-29T12:23:45.896Z,33.3
2018-05-29T12:24:47.300Z,33.1
2018-05-29T12:25:48.800Z,33.1
2018-05-29T12:26:50.161Z,33.0
2018-05-29T12:27:51.572Z,32.9
2018-05-29T12:28:52.973Z,32.8
2018-05-29T12:29:54.376Z,32.7
2018-05-29T12:30:55.778Z,32.6
2018-05-29T12:31:57.182Z,32.6
2018-05-29T12:32:58.594Z,32.5
2018-05-29T12:34:00.000Z,32.3
2018-05-29T12:35:01.400Z,32.3
2018-05-29T12:36:02.807Z,32.2
2018-05-29T12:37:04.213Z,32.3
2018-05-29T12:38:05.612Z,32.0
2018-05-29T12:39:07.011Z,32.0
2018-05-29T12:40:08.442Z,31.9
2018-05-29T12:41:09.839Z,31.8
2018-05-29T12:42:11.243Z,31.7
2018-05-29T12:43:12.646Z,31.7
2018-05-29T12:44:14.072Z,31.5
2018-05-29T12:45:15.477Z,31.5
2018-05-29T12:46:16.900Z,31.4
2018-05-29T12:47:18.408Z,31.3
2018-05-29T12:48:19.793Z,31.1
2018-05-29T12:49:21.195Z,30.8
2018-05-29T12:50:22.601Z,30.5
2018-05-29T12:51:24.007Z,30.2
2018-05-29T12:52:25.405Z,30.2
2018-05-29T12:53:26.805Z,29.9
2018-05-29T12:54:28.226Z,29.7
2018-05-29T12:55:29.628Z,29.2
2018-05-29T12:56:31.031Z,28.5
2018-05-29T12:57:32.438Z,28.1
2018-05-29T12:58:33.842Z,27.4
2018-05-29T12:59:35.240Z,26.9
2018-05-29T13:00:36.638Z,26.5
2018-05-29T13:01:38.042Z,26.4
2018-05-29T13:02:39.446Z,26.4
2018-05-29T13:03:40.850Z,26.1
2018-05-29T13:04:42.301Z,25.9
2018-05-29T13:05:43.731Z,25.8
2018-05-29T13:06:45.132Z,25.5
2018-05-29T13:07:46.527Z,25.4
2018-05-29T13:08:47.930Z,25.2
2018-05-29T13:09:49.328Z,25.1
2018-05-29T13:10:50.736Z,24.8
2018-05-29T13:11:52.137Z,24.7
2018-05-29T13:12:53.559Z,24.7
2018-05-29T13:13:54.949Z,24.7
2018-05-29T13:14:56.359Z,24.7
2018-05-29T13:15:57.754Z,24.7
2018-05-29T13:16:59.154Z,24.7
2018-05-29T13:18:00.555Z,24.6
2018-05-29T13:19:01.955Z,24.6
2018-05-29T13:20:03.348Z,24.6
2018-05-29T13:21:05.705Z,24.6
2018-05-29T13:22:07.103Z,24.5
2018-05-29T13:23:08.510Z,24.4
2018-05-29T13:24:10.266Z,24.4
2018-05-29T13:25:11.672Z,24.3
2018-05-29T13:26:13.081Z,24.0
2018-05-29T13:27:14.473Z,24.1
2018-05-29T13:28:15.873Z,24.1
2018-05-29T13:29:17.265Z,24.2
2018-05-29T13:30:18.665Z,24.1
2018-05-29T13:31:20.063Z,24.2
2018-05-29T13:32:21.463Z,24.2
2018-05-29T13:33:22.866Z,24.1
2018-05-29T13:34:24.263Z,24.1
2018-05-29T13:35:25.661Z,23.9
2018-05-29T13:36:27.057Z,23.8
2018-05-29T13:37:28.468Z,23.8